Time;durP1;ratioP1;P1;durP2;ratioP2;P2;SDS_P1;SDS_P2;PMS_P1;PMS_P2;Temp;Humidity;BMP_temperature;BMP_pressure;BME280_temperature;BME280_humidity;BME280_pressure;Samples;Min_cycle;Max_cycle;Signal;HPM_P1;HPM_P2
2020/08/13 00:01:49;;;;;;;1;0.9;;;;;;;20.32;75.99707;938.3939;;;;
2020/08/13 00:04:15;;;;;;;1.7;1.1;;;;;;;20.28;76.01465;938.4515;;;;
2020/08/13 00:06:40;;;;;;;2.2;1.1;;;;;;;20.43;75.2002;938.4327;;;;
2020/08/13 00:09:05;;;;;;;0.5;0.4;;;;;;;20.48;74.97559;938.3938;;;;
2020/08/13 00:11:30;;;;;;;8.9;1.2;;;;;;;20.55;74.75293;938.4592;;;;
2020/08/13 00:13:55;;;;;;;1.3;0.7;;;;;;;20.46;74.68066;938.4373;;;;
2020/08/13 00:16:20;;;;;;;2.8;0.9;;;;;;;20.11;75.8916;938.4495;;;;
2020/08/13 00:18:45;;;;;;;1.2;0.6;;;;;;;20.08;76.55273;938.5183;;;;
2020/08/13 00:21:11;;;;;;;0.5;0.5;;;;;;;20.17;76.41504;938.4108;;;;
2020/08/13 00:23:36;;;;;;;3.9;0.6;;;;;;;20.27;76.0127;938.4445;;;;
2020/08/13 00:26:03;;;;;;;1.3;0.8;;;;;;;20.25;75.90527;938.3561;;;;
2020/08/13 00:28:28;;;;;;;1.2;0.8;;;;;;;20.13;76.32813;938.4092;;;;
2020/08/13 00:30:56;;;;;;;2.2;0.7;;;;;;;20.23;76.26367;938.3883;;;;
2020/08/13 00:33:21;;;;;;;2.1;0.8;;;;;;;20.27;75.80469;938.3208;;;;
2020/08/13 00:35:46;;;;;;;0.5;0.5;;;;;;;20.24;75.72852;938.3257;;;;
2020/08/13 00:38:12;;;;;;;1.2;1;;;;;;;20.24;75.93848;938.3152;;;;
2020/08/13 00:40:37;;;;;;;0.9;0.6;;;;;;;20.18;76.30078;938.3474;;;;
2020/08/13 00:43:06;;;;;;;0.6;0.5;;;;;;;20.23;76.37891;938.2662;;;;
2020/08/13 00:45:37;;;;;;;2.3;1.1;;;;;;;20.31;75.9043;938.3067;;;;
2020/08/13 00:48:02;;;;;;;3.5;1.5;;;;;;;20.38;75.88184;938.2958;;;;
2020/08/13 00:50:30;;;;;;;4;1.3;;;;;;;20.35;75.29297;938.257;;;;
2020/08/13 00:52:55;;;;;;;2.5;1.5;;;;;;;20.4;75.07715;938.2647;;;;
2020/08/13 00:55:24;;;;;;;1.7;0.7;;;;;;;20.45;75.09766;938.293;;;;
2020/08/13 00:57:54;;;;;;;1.5;1.1;;;;;;;20.37;75.45801;938.2711;;;;
2020/08/13 01:00:38;;;;;;;0.8;0.7;;;;;;;20.39;75.14551;938.2756;;;;
2020/08/13 01:03:03;;;;;;;1.7;0.8;;;;;;;20.31;75.29688;938.2324;;;;
2020/08/13 01:05:29;;;;;;;1.2;1;;;;;;;20.18;75.64941;938.2178;;;;
2020/08/13 01:07:54;;;;;;;2.5;0.9;;;;;;;20.23;75.7832;938.2566;;;;
2020/08/13 01:10:23;;;;;;;0.8;0.7;;;;;;;20.25;75.67188;938.2001;;;;
2020/08/13 01:12:48;;;;;;;0.8;0.8;;;;;;;20.23;75.95898;938.1191;;;;
2020/08/13 01:15:14;;;;;;;0.8;0.8;;;;;;;20.26;75.70996;938.135;;;;
2020/08/13 01:17:39;;;;;;;1.8;0.9;;;;;;;20.24;75.66992;938.1397;;;;
2020/08/13 01:20:05;;;;;;;0.9;0.8;;;;;;;20.03;76.3457;938.0804;;;;
2020/08/13 01:22:30;;;;;;;1.1;0.8;;;;;;;19.94;76.90039;938.1094;;;;
2020/08/13 01:24:55;;;;;;;1.1;0.8;;;;;;;19.91;76.88379;938.0779;;;;
2020/08/13 01:27:20;;;;;;;7.7;0.9;;;;;;;19.75;77.39355;938.1005;;;;
2020/08/13 01:29:45;;;;;;;1;0.7;;;;;;;19.38;79.0752;938.0556;;;;
2020/08/13 01:32:10;;;;;;;1;0.9;;;;;;;19.13;80.33594;938.0945;;;;
2020/08/13 01:34:35;;;;;;;2.7;1.3;;;;;;;19.13;80.41895;938.0394;;;;
2020/08/13 01:37:00;;;;;;;2.3;1;;;;;;;19.2;79.84668;938.0444;;;;
2020/08/13 01:39:30;;;;;;;3.4;1.5;;;;;;;19.25;79.4248;938.0192;;;;
2020/08/13 01:41:56;;;;;;;1.5;0.9;;;;;;;19.21;79.41895;938.0836;;;;
2020/08/13 01:44:21;;;;;;;1.4;1;;;;;;;19.17;79.87598;938.1412;;;;
2020/08/13 01:46:46;;;;;;;3.2;1.4;;;;;;;19.19;79.49707;938.0776;;;;
2020/08/13 01:49:11;;;;;;;1;0.8;;;;;;;19.28;79.06934;938.0703;;;;
2020/08/13 01:51:37;;;;;;;1.1;0.7;;;;;;;19.34;78.7207;938.0436;;;;
2020/08/13 01:54:02;;;;;;;1.3;0.8;;;;;;;19.47;78.47559;938.0528;;;;
2020/08/13 01:56:27;;;;;;;1.7;0.6;;;;;;;19.45;78.49512;938.0242;;;;
2020/08/13 01:58:57;;;;;;;3.7;0.6;;;;;;;19.56;77.97656;937.9838;;;;
2020/08/13 02:01:29;;;;;;;2;0.9;;;;;;;19.62;76.6709;937.9266;;;;
2020/08/13 02:03:55;;;;;;;0.8;0.7;;;;;;;19.62;76.93848;937.9039;;;;
2020/08/13 02:06:20;;;;;;;1.1;0.7;;;;;;;19.64;76.97656;937.8239;;;;
2020/08/13 02:08:45;;;;;;;0.7;0.5;;;;;;;19.63;77.02246;937.7304;;;;
2020/08/13 02:11:15;;;;;;;2.6;1.3;;;;;;;19.47;76.94824;937.8032;;;;
2020/08/13 02:13:40;;;;;;;0.8;0.5;;;;;;;19.33;76.6543;937.7905;;;;
2020/08/13 02:16:07;;;;;;;0.7;0.7;;;;;;;19.13;77.25;937.8225;;;;
2020/08/13 02:18:33;;;;;;;5.8;0.9;;;;;;;19.06;78.0752;937.7846;;;;
2020/08/13 02:21:01;;;;;;;1.1;0.6;;;;;;;19.14;78.00781;937.7261;;;;
2020/08/13 02:23:26;;;;;;;4.2;1.1;;;;;;;19.23;78.05957;937.8081;;;;
2020/08/13 02:25:51;;;;;;;2.8;1;;;;;;;19.32;77.76074;937.7793;;;;
2020/08/13 02:28:16;;;;;;;1.2;0.8;;;;;;;19.33;77.63379;937.7831;;;;
2020/08/13 02:30:48;;;;;;;1.3;0.8;;;;;;;19.23;77.93262;937.838;;;;
2020/08/13 02:33:15;;;;;;;4.4;0.9;;;;;;;19.1;78.61719;937.8401;;;;
2020/08/13 02:35:42;;;;;;;1.9;0.8;;;;;;;19.07;78.72949;937.8571;;;;
2020/08/13 02:38:07;;;;;;;1.2;0.9;;;;;;;18.99;78.72656;937.9119;;;;
2020/08/13 02:40:33;;;;;;;2.9;1;;;;;;;18.99;78.78418;937.8627;;;;
2020/08/13 02:42:58;;;;;;;0.9;0.5;;;;;;;18.98;78.51465;937.8362;;;;
2020/08/13 02:45:32;;;;;;;1.7;0.8;;;;;;;18.96;78.37402;937.8722;;;;
2020/08/13 02:47:59;;;;;;;5.8;1.2;;;;;;;18.92;78.63379;937.8497;;;;
2020/08/13 02:50:27;;;;;;;1.2;0.7;;;;;;;18.65;79.51758;937.8329;;;;
2020/08/13 02:52:52;;;;;;;1.9;0.8;;;;;;;18.65;79.34277;937.7491;;;;
2020/08/13 02:55:17;;;;;;;1.2;0.6;;;;;;;18.66;79.42383;937.8425;;;;
2020/08/13 02:57:42;;;;;;;1.3;0.7;;;;;;;18.67;79.30957;937.7891;;;;
2020/08/13 03:00:07;;;;;;;1.6;0.8;;;;;;;18.76;79.15137;937.762;;;;
2020/08/13 03:02:33;;;;;;;1.1;0.7;;;;;;;18.7;79.08301;937.7302;;;;
2020/08/13 03:04:58;;;;;;;3.5;0.9;;;;;;;18.72;79.41113;937.6944;;;;
2020/08/13 03:07:23;;;;;;;2.1;0.9;;;;;;;18.74;78.74121;937.6559;;;;
2020/08/13 03:09:49;;;;;;;1.3;0.7;;;;;;;18.88;78.40625;937.6844;;;;
2020/08/13 03:12:13;;;;;;;1.3;0.8;;;;;;;18.83;78.24512;937.6728;;;;
2020/08/13 03:14:39;;;;;;;1.6;1;;;;;;;18.8;78.46094;937.7109;;;;
2020/08/13 03:17:04;;;;;;;0.7;0.5;;;;;;;18.83;78.28125;937.738;;;;
2020/08/13 03:19:29;;;;;;;2.2;0.9;;;;;;;18.79;78.73926;937.7095;;;;
2020/08/13 03:21:54;;;;;;;1.5;0.6;;;;;;;18.76;78.93066;937.7047;;;;
2020/08/13 03:24:19;;;;;;;0.8;0.7;;;;;;;18.74;78.86719;937.6454;;;;
2020/08/13 03:26:45;;;;;;;0.8;0.7;;;;;;;18.84;78.65332;937.6385;;;;
2020/08/13 03:29:10;;;;;;;0.8;0.7;;;;;;;18.92;78.10938;937.6342;;;;
2020/08/13 03:31:35;;;;;;;2.7;0.7;;;;;;;18.92;77.47949;937.6117;;;;
2020/08/13 03:34:00;;;;;;;1.2;0.8;;;;;;;18.95;77.30957;937.6788;;;;
2020/08/13 03:36:25;;;;;;;2.4;0.5;;;;;;;18.95;77.7998;937.7303;;;;
2020/08/13 03:38:50;;;;;;;1.1;0.8;;;;;;;18.99;77.13184;937.6955;;;;
2020/08/13 03:41:15;;;;;;;0.5;0.5;;;;;;;19.07;77.04199;937.6922;;;;
2020/08/13 03:43:40;;;;;;;1.9;1;;;;;;;19.08;76.27539;937.7316;;;;
2020/08/13 03:46:05;;;;;;;0.9;0.7;;;;;;;18.95;76.68457;937.702;;;;
2020/08/13 03:48:31;;;;;;;1.3;0.6;;;;;;;18.92;77.51465;937.8175;;;;
2020/08/13 03:50:56;;;;;;;2.8;0.9;;;;;;;18.93;77.58594;937.8245;;;;
2020/08/13 03:53:21;;;;;;;1;0.9;;;;;;;18.8;77.99414;937.8168;;;;
2020/08/13 03:55:46;;;;;;;4.1;1;;;;;;;18.88;77.64746;937.8766;;;;
2020/08/13 03:58:11;;;;;;;1.1;0.7;;;;;;;18.88;77.6377;937.8514;;;;
2020/08/13 04:02:31;;;;;;;0.8;0.7;;;;;;;18.83;77.80469;937.8574;;;;
2020/08/13 04:04:56;;;;;;;1.1;0.8;;;;;;;18.91;77.45508;937.9122;;;;
2020/08/13 04:07:21;;;;;;;1.5;1;;;;;;;18.92;77.57227;937.8756;;;;
2020/08/13 04:09:49;;;;;;;1.6;0.5;;;;;;;18.89;77.68457;937.8513;;;;
2020/08/13 04:12:14;;;;;;;1.4;0.8;;;;;;;18.94;77.42578;937.8599;;;;
2020/08/13 04:14:39;;;;;;;1;0.7;;;;;;;18.94;77.50781;937.9542;;;;
2020/08/13 04:17:04;;;;;;;0.8;0.6;;;;;;;18.94;77.44922;937.9688;;;;
2020/08/13 04:19:29;;;;;;;5.9;1.3;;;;;;;18.86;77.33008;938.0156;;;;
2020/08/13 04:21:54;;;;;;;0.7;0.6;;;;;;;18.84;77.62988;937.996;;;;
2020/08/13 04:24:20;;;;;;;0.6;0.4;;;;;;;18.93;77.3916;937.9914;;;;
2020/08/13 04:26:45;;;;;;;0.8;0.6;;;;;;;18.94;76.75098;938.0308;;;;
2020/08/13 04:29:10;;;;;;;1.6;0.7;;;;;;;18.97;77.39551;937.9914;;;;
2020/08/13 04:31:35;;;;;;;1.5;0.9;;;;;;;18.96;77.08203;937.9997;;;;
2020/08/13 04:34:02;;;;;;;0.5;0.5;;;;;;;18.99;77.18945;938.0014;;;;
2020/08/13 04:36:27;;;;;;;1.1;0.8;;;;;;;19.04;77.22266;937.9941;;;;
2020/08/13 04:38:52;;;;;;;4.1;1.2;;;;;;;19.16;76.83496;937.9984;;;;
2020/08/13 04:41:25;;;;;;;0.7;0.5;;;;;;;19.27;76.34277;937.9429;;;;
2020/08/13 04:43:50;;;;;;;2;1.2;;;;;;;19.31;76.5127;937.9855;;;;
2020/08/13 04:46:16;;;;;;;2.8;1.1;;;;;;;19.36;76.15918;938.0408;;;;
2020/08/13 04:48:41;;;;;;;1.4;0.9;;;;;;;19.42;76.53125;937.9811;;;;
2020/08/13 04:51:06;;;;;;;3.2;0.8;;;;;;;19.4;76.52832;937.9623;;;;
2020/08/13 04:53:31;;;;;;;1.4;0.5;;;;;;;19.52;76.52539;937.9241;;;;
2020/08/13 04:55:56;;;;;;;0.4;0.4;;;;;;;19.63;76.22949;937.9191;;;;
2020/08/13 04:58:21;;;;;;;5.7;0.7;;;;;;;19.69;75.8457;937.962;;;;
2020/08/13 05:00:46;;;;;;;1.1;0.8;;;;;;;19.77;75.92773;937.8961;;;;
2020/08/13 05:03:13;;;;;;;4.2;0.9;;;;;;;19.63;75.13379;937.9299;;;;
2020/08/13 05:05:38;;;;;;;0.4;0.4;;;;;;;19.62;75.17871;937.9775;;;;
2020/08/13 05:08:03;;;;;;;2.3;0.8;;;;;;;19.65;75.18457;937.9406;;;;
2020/08/13 05:10:28;;;;;;;1.7;0.9;;;;;;;19.64;75.4502;938.0248;;;;
2020/08/13 05:12:53;;;;;;;1;0.6;;;;;;;19.44;75.95313;937.959;;;;
2020/08/13 05:15:18;;;;;;;0.9;0.8;;;;;;;19.37;76.52148;937.967;;;;
2020/08/13 05:17:44;;;;;;;2.9;0.9;;;;;;;19.56;76.54492;937.89;;;;
2020/08/13 05:20:09;;;;;;;1.9;0.7;;;;;;;19.8;75.64063;937.9222;;;;
2020/08/13 05:22:34;;;;;;;0.9;0.7;;;;;;;19.98;74.2832;937.9651;;;;
2020/08/13 05:25:01;;;;;;;1.5;0.8;;;;;;;20.07;74.11035;937.9688;;;;
2020/08/13 05:27:26;;;;;;;3.2;1.1;;;;;;;20.12;72.73242;937.9631;;;;
2020/08/13 05:29:51;;;;;;;1;0.7;;;;;;;20.37;73.4375;938.0026;;;;
2020/08/13 05:32:17;;;;;;;0.8;0.6;;;;;;;20.57;72.65332;937.9991;;;;
2020/08/13 05:34:42;;;;;;;2.7;0.9;;;;;;;20.91;72.91797;938.0097;;;;
2020/08/13 05:37:07;;;;;;;1.6;0.7;;;;;;;21.73;69.69238;937.9392;;;;
2020/08/13 05:39:32;;;;;;;2.3;1.3;;;;;;;22.38;65.47852;937.9512;;;;
2020/08/13 05:42:02;;;;;;;1.7;0.9;;;;;;;22.51;65.40332;937.9987;;;;
2020/08/13 05:44:27;;;;;;;0.9;0.6;;;;;;;22.59;65.5332;937.9641;;;;
2020/08/13 05:46:52;;;;;;;0.4;0.4;;;;;;;22.56;65.39844;937.9775;;;;
2020/08/13 05:49:17;;;;;;;3.9;1;;;;;;;22.54;65.41895;937.9961;;;;
2020/08/13 05:51:43;;;;;;;0.4;0.4;;;;;;;22.69;66.72266;937.9475;;;;
2020/08/13 05:54:08;;;;;;;0.7;0.7;;;;;;;22.79;65.84375;937.8747;;;;
2020/08/13 05:56:33;;;;;;;3.3;0.7;;;;;;;22.81;65.27246;937.8788;;;;
2020/08/13 05:58:58;;;;;;;1;0.6;;;;;;;22.78;64.98535;938.0377;;;;
2020/08/13 06:01:23;;;;;;;0.4;0.4;;;;;;;22.69;64.89063;938.0621;;;;
2020/08/13 06:03:48;;;;;;;2.5;0.9;;;;;;;22.47;65.06934;938.0685;;;;
2020/08/13 06:06:13;;;;;;;1.2;0.5;;;;;;;22.22;65.44336;938.0591;;;;
2020/08/13 06:08:38;;;;;;;0.6;0.5;;;;;;;22.08;66.49023;938.0834;;;;
2020/08/13 06:11:03;;;;;;;1.5;0.9;;;;;;;22.18;66.49121;938.0346;;;;
2020/08/13 06:13:29;;;;;;;1.8;0.9;;;;;;;22.22;66.49805;938.0753;;;;
2020/08/13 06:15:54;;;;;;;1.5;0.9;;;;;;;22.04;66.9873;938.0692;;;;
2020/08/13 06:18:19;;;;;;;1.3;1;;;;;;;21.97;67.67969;938.0893;;;;
2020/08/13 06:20:44;;;;;;;1.6;1.1;;;;;;;22.03;67.49023;938.1605;;;;
2020/08/13 06:23:09;;;;;;;1;0.6;;;;;;;22.17;68.17969;938.0705;;;;
2020/08/13 06:25:34;;;;;;;6.1;1.1;;;;;;;22.27;67.63281;938.1208;;;;
2020/08/13 06:28:00;;;;;;;1.1;0.6;;;;;;;22.21;66.70703;938.0863;;;;
2020/08/13 06:30:29;;;;;;;1.7;0.9;;;;;;;22.2;67.57422;938.1328;;;;
2020/08/13 06:32:54;;;;;;;1.4;0.7;;;;;;;22.27;66.66895;938.1072;;;;
2020/08/13 06:35:19;;;;;;;2.3;0.7;;;;;;;22.29;66.20605;938.1426;;;;
2020/08/13 06:37:50;;;;;;;1;0.5;;;;;;;22.27;67.63281;938.1597;;;;
2020/08/13 06:40:14;;;;;;;1.4;0.9;;;;;;;22.42;67.0791;938.2169;;;;
2020/08/13 06:42:39;;;;;;;1.9;0.9;;;;;;;22.53;65.88867;938.2625;;;;
2020/08/13 06:45:04;;;;;;;2;1.1;;;;;;;22.67;66.84766;938.2844;;;;
2020/08/13 06:47:31;;;;;;;2.4;0.8;;;;;;;22.83;68.08203;938.236;;;;
2020/08/13 06:49:56;;;;;;;0.9;0.6;;;;;;;22.83;70.8291;938.2758;;;;
2020/08/13 06:52:21;;;;;;;1.1;0.7;;;;;;;22.87;69.27344;938.2775;;;;
2020/08/13 06:54:46;;;;;;;2.4;0.9;;;;;;;22.95;69.53223;938.3452;;;;
2020/08/13 06:57:11;;;;;;;0.9;0.6;;;;;;;22.86;70.43457;938.3958;;;;
2020/08/13 06:59:36;;;;;;;3;0.7;;;;;;;22.83;70.05469;938.4327;;;;
2020/08/13 07:02:01;;;;;;;2.2;0.8;;;;;;;22.97;69.24219;938.3776;;;;
2020/08/13 07:04:26;;;;;;;1.5;0.8;;;;;;;23;71.29004;938.358;;;;
2020/08/13 07:06:52;;;;;;;2.1;0.8;;;;;;;23.08;70.55078;938.3308;;;;
2020/08/13 07:09:19;;;;;;;2.6;1.3;;;;;;;23.15;70.51563;938.3206;;;;
2020/08/13 07:11:45;;;;;;;0.7;0.7;;;;;;;23.34;70.2998;938.3484;;;;
2020/08/13 07:14:10;;;;;;;1.5;1;;;;;;;23.5;70.20703;938.4137;;;;
2020/08/13 07:16:36;;;;;;;0.8;0.4;;;;;;;23.52;70.91699;938.4122;;;;
2020/08/13 07:19:01;;;;;;;1.2;0.7;;;;;;;23.57;69.73438;938.3773;;;;
2020/08/13 07:21:26;;;;;;;1.8;1.2;;;;;;;23.64;69.25195;938.4462;;;;
2020/08/13 07:23:51;;;;;;;4;1.2;;;;;;;23.8;69.30078;938.2974;;;;
2020/08/13 07:26:16;;;;;;;1.6;0.8;;;;;;;23.99;70.73047;938.3628;;;;
2020/08/13 07:28:41;;;;;;;2.3;0.9;;;;;;;24.1;69.08789;938.3325;;;;
2020/08/13 07:31:07;;;;;;;0.9;0.7;;;;;;;24.37;68.01074;938.2147;;;;
2020/08/13 07:33:32;;;;;;;2.8;0.9;;;;;;;24.66;66.30957;938.2203;;;;
2020/08/13 07:35:57;;;;;;;0.6;0.6;;;;;;;24.9;63.05469;938.2592;;;;
2020/08/13 07:38:44;;;;;;;0.3;0.3;;;;;;;25.2;62.00977;938.2827;;;;
2020/08/13 07:41:37;;;;;;;2.7;0.6;;;;;;;25.06;61.68359;938.2942;;;;
2020/08/13 07:43:41;;;;;;;2.4;0.5;;;;;;;24.9;60.40039;938.3;;;;
2020/08/13 07:46:07;;;;;;;1.4;0.7;;;;;;;24.62;61.59961;938.2609;;;;
2020/08/13 07:48:36;;;;;;;1.8;0.5;;;;;;;24.43;62.2334;938.2693;;;;
2020/08/13 07:51:02;;;;;;;0.7;0.7;;;;;;;23.73;63.75879;938.2611;;;;
2020/08/13 07:53:27;;;;;;;1.4;0.7;;;;;;;23.47;65.56934;938.3125;;;;
2020/08/13 07:55:54;;;;;;;0.1;0.1;;;;;;;23.46;66.02539;938.2838;;;;
2020/08/13 07:58:19;;;;;;;11.8;0.7;;;;;;;23.67;66.76367;938.24;;;;
2020/08/13 08:00:55;;;;;;;0.5;0.5;;;;;;;23.76;67.14063;938.2698;;;;
2020/08/13 08:03:20;;;;;;;0.5;0.4;;;;;;;23.85;67.17773;938.2575;;;;
2020/08/13 08:05:44;;;;;;;3.9;0.6;;;;;;;24.06;65.43164;938.2456;;;;
2020/08/13 08:08:14;;;;;;;1;0.8;;;;;;;24.15;65.41016;938.3352;;;;
2020/08/13 08:10:39;;;;;;;0.9;0.8;;;;;;;24.16;63.97461;938.3362;;;;
2020/08/13 08:13:04;;;;;;;0.7;0.6;;;;;;;23.79;65.8291;938.3716;;;;
2020/08/13 08:15:38;;;;;;;0.8;0.5;;;;;;;23.79;67.79395;938.339;;;;
2020/08/13 08:18:03;;;;;;;1;0.7;;;;;;;23.88;66.53516;938.321;;;;
2020/08/13 08:20:30;;;;;;;2.9;0.9;;;;;;;24.02;65.11914;938.3445;;;;
2020/08/13 08:22:56;;;;;;;1.4;0.7;;;;;;;24.01;63.88184;938.3947;;;;
2020/08/13 08:25:29;;;;;;;0.8;0.7;;;;;;;23.98;65.90234;938.3681;;;;
2020/08/13 08:27:57;;;;;;;0.2;0.2;;;;;;;23.84;65.02344;938.3365;;;;
2020/08/13 08:30:34;;;;;;;0.4;0.4;;;;;;;23.83;64.16211;938.342;;;;
2020/08/13 08:33:00;;;;;;;0.4;0.2;;;;;;;23.85;64.625;938.3728;;;;
2020/08/13 08:35:28;;;;;;;0.8;0.6;;;;;;;23.79;64.12109;938.3408;;;;
2020/08/13 08:37:53;;;;;;;0.5;0.4;;;;;;;23.88;63.81641;938.2836;;;;
2020/08/13 08:40:22;;;;;;;1.6;0.7;;;;;;;23.93;66.2959;938.3205;;;;
2020/08/13 08:42:50;;;;;;;0.7;0.5;;;;;;;24.1;65.89648;938.3423;;;;
2020/08/13 08:45:31;;;;;;;1.7;0.7;;;;;;;24.33;66.49512;938.3624;;;;
2020/08/13 08:47:56;;;;;;;0.7;0.4;;;;;;;24.23;65.21094;938.353;;;;
2020/08/13 08:50:26;;;;;;;0.5;0.4;;;;;;;24.35;67.0166;938.35;;;;
2020/08/13 08:52:51;;;;;;;2.1;0.6;;;;;;;24.43;68.66797;938.3937;;;;
2020/08/13 08:55:16;;;;;;;1.2;0.9;;;;;;;24.64;68.77246;938.3848;;;;
2020/08/13 08:57:41;;;;;;;0.8;0.5;;;;;;;24.79;66.55371;938.3031;;;;
2020/08/13 09:00:07;;;;;;;1;0.6;;;;;;;24.79;67.32031;938.3397;;;;
2020/08/13 09:02:32;;;;;;;2.3;1;;;;;;;25.11;64.14551;938.2665;;;;
2020/08/13 09:04:57;;;;;;;0.7;0.5;;;;;;;25.64;62.35547;938.3168;;;;
2020/08/13 09:07:25;;;;;;;3.2;0.6;;;;;;;25.65;63.63281;938.3408;;;;
2020/08/13 09:09:51;;;;;;;2.1;0.7;;;;;;;26.16;59.4707;938.3474;;;;
2020/08/13 09:12:16;;;;;;;5;0.9;;;;;;;26.89;58.28711;938.3215;;;;
2020/08/13 09:14:41;;;;;;;3;0.8;;;;;;;27.19;59.98633;938.4118;;;;
2020/08/13 09:17:06;;;;;;;1.3;0.7;;;;;;;27.03;58.68555;938.3027;;;;
2020/08/13 09:19:31;;;;;;;5.1;0.7;;;;;;;27.67;58.79199;938.2822;;;;
2020/08/13 09:21:59;;;;;;;0.8;0.5;;;;;;;28.21;56.67676;938.1425;;;;
2020/08/13 09:24:25;;;;;;;0.5;0.4;;;;;;;28.99;53.75;938.0814;;;;
2020/08/13 09:26:50;;;;;;;0.7;0.5;;;;;;;29.19;53.23828;938.0781;;;;
2020/08/13 09:29:16;;;;;;;0.3;0.2;;;;;;;29.03;55.95801;938.0264;;;;
2020/08/13 09:31:41;;;;;;;0.5;0.5;;;;;;;29.25;52.90039;937.9767;;;;
2020/08/13 09:34:06;;;;;;;0.6;0.6;;;;;;;29.64;48.89258;938.0048;;;;
2020/08/13 09:36:33;;;;;;;0.7;0.4;;;;;;;29.7;48.9707;937.9182;;;;
2020/08/13 09:38:58;;;;;;;0.9;0.6;;;;;;;29.71;52.05957;937.9136;;;;
2020/08/13 09:41:24;;;;;;;18.6;0.4;;;;;;;29.33;52.11133;937.8691;;;;
2020/08/13 09:43:49;;;;;;;1;0.6;;;;;;;29.24;53.68457;937.9023;;;;
2020/08/13 09:46:14;;;;;;;3.9;1;;;;;;;29.36;54.34277;937.8797;;;;
2020/08/13 09:48:39;;;;;;;1.9;1;;;;;;;29.71;48.9834;937.8272;;;;
2020/08/13 09:51:04;;;;;;;0.7;0.6;;;;;;;29.98;47.4248;937.8208;;;;
2020/08/13 09:53:29;;;;;;;0.5;0.3;;;;;;;30.38;48.09961;937.8214;;;;
2020/08/13 09:55:56;;;;;;;1.8;0.8;;;;;;;30.45;45.94531;937.7629;;;;
2020/08/13 09:58:22;;;;;;;1.5;0.7;;;;;;;30.91;44.95313;937.7134;;;;
2020/08/13 10:00:52;;;;;;;1;0.6;;;;;;;31.09;46;937.7573;;;;
2020/08/13 10:03:17;;;;;;;3.2;1;;;;;;;31.08;46.16602;937.8002;;;;
2020/08/13 10:05:43;;;;;;;0.4;0.3;;;;;;;31.24;44.66211;937.6884;;;;
2020/08/13 10:08:08;;;;;;;0.4;0.4;;;;;;;30.92;48.48145;937.7626;;;;
2020/08/13 10:10:34;;;;;;;0.4;0.3;;;;;;;31.13;46.8291;937.7494;;;;
2020/08/13 10:13:01;;;;;;;0.3;0.3;;;;;;;31.17;44.93066;937.7061;;;;
2020/08/13 10:15:33;;;;;;;2;0.4;;;;;;;31.4;44.46289;937.6202;;;;
2020/08/13 10:17:58;;;;;;;1;0.7;;;;;;;31.62;44.73633;937.5831;;;;
2020/08/13 10:20:23;;;;;;;4;0.7;;;;;;;32.07;43.77344;937.5284;;;;
2020/08/13 10:22:49;;;;;;;0.6;0.3;;;;;;;32.45;42.53711;937.5625;;;;
2020/08/13 10:25:14;;;;;;;0.4;0.3;;;;;;;32.53;40.48242;937.5475;;;;
2020/08/13 10:27:39;;;;;;;0.5;0.5;;;;;;;32.64;39.62793;937.5263;;;;
2020/08/13 10:30:04;;;;;;;0.8;0.5;;;;;;;32.58;39.95898;937.4902;;;;
2020/08/13 10:32:29;;;;;;;0.8;0.7;;;;;;;32.2;43.28223;937.4692;;;;
2020/08/13 10:34:55;;;;;;;2;1.2;;;;;;;31.94;44.2041;937.4205;;;;
2020/08/13 10:37:20;;;;;;;1.4;0.6;;;;;;;32.79;43.49512;937.423;;;;
2020/08/13 10:39:45;;;;;;;2.8;0.4;;;;;;;33.51;39.72754;937.3833;;;;
2020/08/13 10:42:10;;;;;;;0.8;0.6;;;;;;;34.28;37.83203;937.4261;;;;
2020/08/13 10:44:35;;;;;;;0.6;0.4;;;;;;;34.7;35.85254;937.3906;;;;
2020/08/13 10:47:02;;;;;;;0.3;0.2;;;;;;;34.8;35.14941;937.3873;;;;
2020/08/13 10:49:27;;;;;;;0.9;0.3;;;;;;;35.01;34.08008;937.3814;;;;
2020/08/13 10:51:52;;;;;;;1.2;0.8;;;;;;;35.41;31.36914;937.3801;;;;
2020/08/13 10:54:19;;;;;;;3.3;0.4;;;;;;;35.39;35.09863;937.4263;;;;
2020/08/13 10:56:44;;;;;;;1.2;0.8;;;;;;;35.83;34.50391;937.4397;;;;
2020/08/13 10:59:09;;;;;;;0.8;0.5;;;;;;;35.74;35.31934;937.4129;;;;
2020/08/13 11:01:34;;;;;;;4.1;0.5;;;;;;;35.76;35.00586;937.4553;;;;
2020/08/13 11:03:59;;;;;;;4.7;1;;;;;;;35.26;37.49121;937.5106;;;;
2020/08/13 11:06:25;;;;;;;0.7;0.3;;;;;;;34.66;38.30859;937.4753;;;;
2020/08/13 11:08:50;;;;;;;1.5;0.9;;;;;;;34.13;39.11914;937.3935;;;;
2020/08/13 11:11:15;;;;;;;2.3;0.9;;;;;;;33.21;41.70801;937.415;;;;
2020/08/13 11:13:40;;;;;;;2.3;0.8;;;;;;;32.3;44.25098;937.4048;;;;
2020/08/13 11:16:07;;;;;;;1;0.4;;;;;;;32.03;44.83691;937.4149;;;;
2020/08/13 11:18:33;;;;;;;3.4;0.7;;;;;;;31.69;47.16113;937.3917;;;;
2020/08/13 11:20:58;;;;;;;0.5;0.5;;;;;;;31.58;47.47363;937.4297;;;;
2020/08/13 11:23:23;;;;;;;0.7;0.6;;;;;;;31.69;48.8623;937.4095;;;;
2020/08/13 11:25:48;;;;;;;2.7;0.9;;;;;;;31.58;49.33008;937.3825;;;;
2020/08/13 11:28:13;;;;;;;1.2;0.6;;;;;;;31.4;49.75293;937.4155;;;;
2020/08/13 11:30:38;;;;;;;1.1;0.9;;;;;;;31.16;50.32422;937.4497;;;;
2020/08/13 11:33:06;;;;;;;0.9;0.3;;;;;;;31.43;50.41504;937.4731;;;;
2020/08/13 11:35:31;;;;;;;0.5;0.5;;;;;;;31.42;51.33496;937.4325;;;;
2020/08/13 11:37:56;;;;;;;4.6;0.5;;;;;;;31.15;49.36621;937.4406;;;;
2020/08/13 11:40:21;;;;;;;0.6;0.4;;;;;;;30.89;49.75586;937.4665;;;;
2020/08/13 11:42:47;;;;;;;0.5;0.5;;;;;;;30.62;51.20898;937.405;;;;
2020/08/13 11:45:12;;;;;;;0.4;0.3;;;;;;;30.44;51.73828;937.4131;;;;
2020/08/13 11:47:38;;;;;;;1.3;0.9;;;;;;;30.47;49.74512;937.4426;;;;
2020/08/13 11:50:03;;;;;;;0.4;0.4;;;;;;;30.48;46.85742;937.3778;;;;
2020/08/13 11:52:28;;;;;;;1.3;1.1;;;;;;;30.71;46.70215;937.3896;;;;
2020/08/13 11:54:53;;;;;;;0.7;0.5;;;;;;;30.63;48.76074;937.3862;;;;
2020/08/13 11:57:18;;;;;;;3.2;0.8;;;;;;;30.48;48.14648;937.3939;;;;
2020/08/13 11:59:43;;;;;;;0.5;0.3;;;;;;;30.26;48.60156;937.3666;;;;
2020/08/13 12:02:08;;;;;;;0.4;0.4;;;;;;;30;49.44434;937.3756;;;;
2020/08/13 12:04:33;;;;;;;0.9;0.6;;;;;;;29.63;50.73926;937.3923;;;;
2020/08/13 12:07:00;;;;;;;1.3;0.5;;;;;;;29.35;52.23242;937.4487;;;;
2020/08/13 12:09:25;;;;;;;1.3;0.8;;;;;;;29.54;51.7168;937.4551;;;;
2020/08/13 12:11:57;;;;;;;0.9;0.6;;;;;;;29.33;50.84863;937.5203;;;;
2020/08/13 12:14:22;;;;;;;0.5;0.4;;;;;;;29.46;51.13672;937.5638;;;;
2020/08/13 12:16:49;;;;;;;5.1;0.9;;;;;;;29.36;49.46973;937.5383;;;;
2020/08/13 12:19:13;;;;;;;0.5;0.4;;;;;;;29.21;50.08398;937.5558;;;;
2020/08/13 12:21:39;;;;;;;1.6;0.8;;;;;;;29.22;48.19238;937.5502;;;;
2020/08/13 12:24:04;;;;;;;5.5;0.6;;;;;;;29.26;47.62402;937.5161;;;;
2020/08/13 12:26:29;;;;;;;0.6;0.5;;;;;;;29.35;48.76563;937.5817;;;;
2020/08/13 12:28:54;;;;;;;0.5;0.4;;;;;;;29.22;49.62109;937.5567;;;;
2020/08/13 12:31:20;;;;;;;1.1;0.6;;;;;;;28.94;49.47168;937.5524;;;;
2020/08/13 12:33:45;;;;;;;1.2;1;;;;;;;28.73;48.18652;937.5697;;;;
2020/08/13 12:36:10;;;;;;;0.4;0.4;;;;;;;28.57;48.12207;937.5753;;;;
2020/08/13 12:38:40;;;;;;;0.5;0.5;;;;;;;28.3;50.29297;937.6422;;;;
2020/08/13 12:41:05;;;;;;;0.7;0.4;;;;;;;28.02;50.53418;937.6227;;;;
2020/08/13 12:43:32;;;;;;;4.4;0.5;;;;;;;27.75;50.6582;937.5689;;;;
2020/08/13 12:45:59;;;;;;;6.1;0.8;;;;;;;27.7;51.98242;937.5803;;;;
2020/08/13 12:48:24;;;;;;;2.6;1.1;;;;;;;27.37;52.78711;937.6433;;;;
2020/08/13 12:50:49;;;;;;;0.9;0.6;;;;;;;27.19;54.1875;937.6763;;;;
2020/08/13 12:53:14;;;;;;;3.6;1.4;;;;;;;27.11;53.51465;937.757;;;;
2020/08/13 12:55:40;;;;;;;1.4;0.7;;;;;;;26.92;55.08008;937.6583;;;;
2020/08/13 12:58:06;;;;;;;3.4;1;;;;;;;26.69;55.39453;937.6747;;;;
2020/08/13 13:00:38;;;;;;;3.2;0.8;;;;;;;26.45;55.56641;937.7658;;;;
2020/08/13 13:03:05;;;;;;;0.7;0.5;;;;;;;26.48;55.52246;937.7878;;;;
2020/08/13 13:05:37;;;;;;;1;0.8;;;;;;;26.21;56.79102;937.8232;;;;
2020/08/13 13:08:02;;;;;;;0.6;0.5;;;;;;;26.15;57.5166;937.845;;;;
2020/08/13 13:10:29;;;;;;;1.3;0.9;;;;;;;26.03;58.29395;937.7876;;;;
2020/08/13 13:12:56;;;;;;;5.5;1.4;;;;;;;25.76;59.74805;937.8121;;;;
2020/08/13 13:15:26;;;;;;;1.4;1;;;;;;;25.72;60.19043;937.9945;;;;
2020/08/13 13:17:53;;;;;;;2.4;1.3;;;;;;;25.72;60.44043;938.1043;;;;
2020/08/13 13:20:18;;;;;;;1.9;0.8;;;;;;;25.59;63.37598;938.1967;;;;
2020/08/13 13:22:46;;;;;;;1;0.6;;;;;;;25.33;62.54883;938.1812;;;;
2020/08/13 13:25:19;;;;;;;1;0.6;;;;;;;25.15;63.75098;938.435;;;;
2020/08/13 13:27:44;;;;;;;1.8;0.7;;;;;;;24.82;65.40137;938.5182;;;;
2020/08/13 13:30:14;;;;;;;2;0.9;;;;;;;24.65;67.83008;938.6472;;;;
2020/08/13 13:32:39;;;;;;;2.2;1.1;;;;;;;24.41;68.62988;938.7192;;;;
2020/08/13 13:35:04;;;;;;;2;1.2;;;;;;;23.95;70.99707;938.6002;;;;
2020/08/13 13:37:29;;;;;;;1;0.7;;;;;;;23.77;72.91016;938.535;;;;
2020/08/13 13:39:55;;;;;;;1.9;0.8;;;;;;;23.29;74.45215;938.7997;;;;
2020/08/13 13:42:20;;;;;;;3.5;1.8;;;;;;;22.89;76.55762;939.0076;;;;
2020/08/13 13:44:45;;;;;;;0.8;0.8;;;;;;;22.28;78.2002;939.0006;;;;
2020/08/13 13:47:11;;;;;;;1.6;1.2;;;;;;;22.4;79.83984;938.9786;;;;
2020/08/13 13:49:36;;;;;;;4.2;2;;;;;;;22.55;83.76172;938.9105;;;;
2020/08/13 13:52:01;;;;;;;1.6;1;;;;;;;22.85;83.1875;938.7744;;;;
2020/08/13 13:54:27;;;;;;;1.9;1.5;;;;;;;23.31;83.52051;938.9012;;;;
2020/08/13 13:56:52;;;;;;;2.6;1.5;;;;;;;23.54;81.38574;938.9091;;;;
2020/08/13 13:59:21;;;;;;;1.5;1.1;;;;;;;24.04;82.0293;938.9428;;;;
2020/08/13 14:01:46;;;;;;;4;1.6;;;;;;;24.5;77.76465;938.9428;;;;
2020/08/13 14:04:14;;;;;;;6.3;1.1;;;;;;;24.34;76.00586;939.0079;;;;
2020/08/13 14:06:39;;;;;;;1.4;1.1;;;;;;;24.48;75.8291;939.1042;;;;
2020/08/13 14:09:04;;;;;;;1.3;1.1;;;;;;;24.48;73.99023;939.1;;;;
2020/08/13 14:11:32;;;;;;;1.6;1.4;;;;;;;24.61;74.87207;939.1303;;;;
2020/08/13 14:13:59;;;;;;;4.8;1.1;;;;;;;24.63;74.69922;939.1663;;;;
2020/08/13 14:16:27;;;;;;;2.1;1.3;;;;;;;24.61;74.67285;939.1895;;;;
2020/08/13 14:18:53;;;;;;;1.9;1.1;;;;;;;24.55;74.47363;939.2314;;;;
2020/08/13 14:21:18;;;;;;;1.1;1;;;;;;;24.44;75.49316;939.1213;;;;